sensor_id;sensor_type;location;lat;lon;timestamp;pressure;altitude;pressure_sealevel;temperature;humidity
77299;BME280;66361;52.034;20.656;2023-03-01T00:02:53;101164.31;;;-6.90;100.00
77299;BME280;66361;52.034;20.656;2023-03-01T00:07:00;101166.00;;;-6.90;100.00
77299;BME280;66361;52.034;20.656;2023-03-01T00:11:07;101166.75;;;-6.94;100.00
77299;BME280;66361;52.034;20.656;2023-03-01T00:15:14;101180.34;;;-6.98;100.00
77299;BME280;66361;52.034;20.656;2023-03-01T00:19:18;101179.63;;;-6.93;100.00
77299;BME280;66361;52.034;20.656;2023-03-01T00:23:27;101184.75;;;-6.93;100.00
77299;BME280;66361;52.034;20.656;2023-03-01T00:27:32;101173.00;;;-6.85;100.00
77299;BME280;66361;52.034;20.656;2023-03-01T00:31:35;101169.72;;;-6.77;100.00
77299;BME280;66361;52.034;20.656;2023-03-01T00:35:40;101151.75;;;-6.77;100.00
77299;BME280;66361;52.034;20.656;2023-03-01T00:39:45;101162.16;;;-6.71;100.00
77299;BME280;66361;52.034;20.656;2023-03-01T00:43:49;101165.53;;;-6.74;100.00
77299;BME280;66361;52.034;20.656;2023-03-01T00:47:52;101159.56;;;-6.73;100.00
77299;BME280;66361;52.034;20.656;2023-03-01T00:51:57;101152.75;;;-6.71;100.00
77299;BME280;66361;52.034;20.656;2023-03-01T00:56:02;101150.06;;;-6.77;100.00
77299;BME280;66361;52.034;20.656;2023-03-01T01:00:07;101134.66;;;-6.77;100.00
77299;BME280;66361;52.034;20.656;2023-03-01T01:04:12;101125.28;;;-6.75;100.00
77299;BME280;66361;52.034;20.656;2023-03-01T01:08:15;101120.31;;;-6.69;100.00
77299;BME280;66361;52.034;20.656;2023-03-01T01:12:20;101127.25;;;-6.65;100.00
77299;BME280;66361;52.034;20.656;2023-03-01T01:16:28;101116.13;;;-6.64;100.00
77299;BME280;66361;52.034;20.656;2023-03-01T01:20:32;101118.69;;;-6.65;100.00
77299;BME280;66361;52.034;20.656;2023-03-01T01:24:35;101124.59;;;-6.68;100.00
77299;BME280;66361;52.034;20.656;2023-03-01T01:28:40;101122.03;;;-6.68;100.00
77299;BME280;66361;52.034;20.656;2023-03-01T01:32:44;101113.44;;;-6.68;100.00
77299;BME280;66361;52.034;20.656;2023-03-01T01:36:48;101116.81;;;-6.71;100.00
77299;BME280;66361;52.034;20.656;2023-03-01T01:40:52;101098.84;;;-6.71;100.00
77299;BME280;66361;52.034;20.656;2023-03-01T01:49:41;101095.47;;;-6.68;100.00
77299;BME280;66361;52.034;20.656;2023-03-01T01:53:48;101086.09;;;-6.68;100.00
77299;BME280;66361;52.034;20.656;2023-03-01T01:57:56;101078.38;;;-6.68;100.00
77299;BME280;66361;52.034;20.656;2023-03-01T02:02:02;101073.34;;;-6.65;100.00
77299;BME280;66361;52.034;20.656;2023-03-01T02:06:12;101078.44;;;-6.66;100.00
77299;BME280;66361;52.034;20.656;2023-03-01T02:10:20;101069.91;;;-6.64;100.00
77299;BME280;66361;52.034;20.656;2023-03-01T02:14:23;101064.00;;;-6.61;100.00
77299;BME280;66361;52.034;20.656;2023-03-01T02:18:27;101069.19;;;-6.57;100.00
77299;BME280;66361;52.034;20.656;2023-03-01T02:22:34;101067.50;;;-6.56;100.00
77299;BME280;66361;52.034;20.656;2023-03-01T02:26:46;101063.13;;;-6.62;100.00
77299;BME280;66361;52.034;20.656;2023-03-01T02:30:53;101067.41;;;-6.61;100.00
77299;BME280;66361;52.034;20.656;2023-03-01T02:35:16;101064.06;;;-6.57;100.00
77299;BME280;66361;52.034;20.656;2023-03-01T02:39:24;101075.50;;;-6.43;100.00
77299;BME280;66361;52.034;20.656;2023-03-01T02:43:31;101071.31;;;-6.39;100.00
77299;BME280;66361;52.034;20.656;2023-03-01T02:47:36;101071.25;;;-6.41;100.00
77299;BME280;66361;52.034;20.656;2023-03-01T02:51:47;101080.72;;;-6.38;100.00
77299;BME280;66361;52.034;20.656;2023-03-01T02:55:53;101068.78;;;-6.36;100.00
77299;BME280;66361;52.034;20.656;2023-03-01T03:00:00;101067.09;;;-6.36;100.00
77299;BME280;66361;52.034;20.656;2023-03-01T03:04:11;101058.53;;;-6.35;100.00
77299;BME280;66361;52.034;20.656;2023-03-01T03:08:18;101054.25;;;-6.36;100.00
77299;BME280;66361;52.034;20.656;2023-03-01T03:12:25;101049.00;;;-6.40;100.00
77299;BME280;66361;52.034;20.656;2023-03-01T03:16:28;101042.03;;;-6.46;100.00
77299;BME280;66361;52.034;20.656;2023-03-01T03:20:34;101047.16;;;-6.47;100.00
77299;BME280;66361;52.034;20.656;2023-03-01T03:24:39;101051.44;;;-6.48;100.00
77299;BME280;66361;52.034;20.656;2023-03-01T03:28:42;101051.31;;;-6.54;100.00
77299;BME280;66361;52.034;20.656;2023-03-01T03:32:46;101058.09;;;-6.56;100.00
77299;BME280;66361;52.034;20.656;2023-03-01T03:36:57;101049.72;;;-6.47;100.00
77299;BME280;66361;52.034;20.656;2023-03-01T03:41:02;101034.44;;;-6.43;100.00
77299;BME280;66361;52.034;20.656;2023-03-01T03:45:07;101038.63;;;-6.46;100.00
77299;BME280;66361;52.034;20.656;2023-03-01T03:49:10;101029.97;;;-6.50;100.00
77299;BME280;66361;52.034;20.656;2023-03-01T03:53:14;101025.75;;;-6.48;100.00
77299;BME280;66361;52.034;20.656;2023-03-01T03:57:17;101014.66;;;-6.45;100.00
77299;BME280;66361;52.034;20.656;2023-03-01T04:01:20;101021.53;;;-6.44;100.00
77299;BME280;66361;52.034;20.656;2023-03-01T04:05:26;101012.97;;;-6.46;100.00
77299;BME280;66361;52.034;20.656;2023-03-01T04:09:30;101014.72;;;-6.42;100.00
77299;BME280;66361;52.034;20.656;2023-03-01T04:13:34;101000.19;;;-6.42;100.00
77299;BME280;66361;52.034;20.656;2023-03-01T04:17:39;100987.34;;;-6.42;100.00
77299;BME280;66361;52.034;20.656;2023-03-01T04:21:42;100988.41;;;-6.32;100.00
77299;BME280;66361;52.034;20.656;2023-03-01T04:25:49;100984.56;;;-6.07;100.00
77299;BME280;66361;52.034;20.656;2023-03-01T04:29:55;100996.09;;;-5.84;100.00
77299;BME280;66361;52.034;20.656;2023-03-01T04:34:00;100997.25;;;-5.65;100.00
77299;BME280;66361;52.034;20.656;2023-03-01T04:38:04;100986.25;;;-5.57;100.00
77299;BME280;66361;52.034;20.656;2023-03-01T04:42:08;101000.91;;;-5.51;100.00
77299;BME280;66361;52.034;20.656;2023-03-01T04:46:13;101008.69;;;-5.47;100.00
77299;BME280;66361;52.034;20.656;2023-03-01T04:50:18;101004.50;;;-5.40;100.00
77299;BME280;66361;52.034;20.656;2023-03-01T04:54:24;101003.69;;;-5.38;100.00
77299;BME280;66361;52.034;20.656;2023-03-01T04:58:29;100995.16;;;-5.35;100.00
77299;BME280;66361;52.034;20.656;2023-03-01T05:02:32;100990.91;;;-5.31;100.00
77299;BME280;66361;52.034;20.656;2023-03-01T05:06:37;100993.47;;;-5.31;100.00
77299;BME280;66361;52.034;20.656;2023-03-01T05:10:40;100985.84;;;-5.25;100.00
77299;BME280;66361;52.034;20.656;2023-03-01T05:14:45;100986.75;;;-5.23;100.00
77299;BME280;66361;52.034;20.656;2023-03-01T05:18:48;100980.69;;;-5.27;100.00
77299;BME280;66361;52.034;20.656;2023-03-01T05:22:57;100976.34;;;-5.31;100.00
77299;BME280;66361;52.034;20.656;2023-03-01T05:27:07;100980.59;;;-5.34;100.00
77299;BME280;66361;52.034;20.656;2023-03-01T05:31:12;100974.56;;;-5.35;100.00
77299;BME280;66361;52.034;20.656;2023-03-01T05:35:16;100970.28;;;-5.33;100.00
77299;BME280;66361;52.034;20.656;2023-03-01T05:39:20;100978.13;;;-5.25;100.00
77299;BME280;66361;52.034;20.656;2023-03-01T05:43:26;100986.06;;;-5.12;100.00
77299;BME280;66361;52.034;20.656;2023-03-01T05:47:32;100992.28;;;-4.96;100.00
77299;BME280;66361;52.034;20.656;2023-03-01T05:51:35;100992.50;;;-4.75;100.00
77299;BME280;66361;52.034;20.656;2023-03-01T05:55:39;100993.63;;;-4.50;100.00
77299;BME280;66361;52.034;20.656;2023-03-01T05:59:43;100996.63;;;-4.14;100.00
77299;BME280;66361;52.034;20.656;2023-03-01T06:03:47;101001.19;;;-3.84;100.00
77299;BME280;66361;52.034;20.656;2023-03-01T06:07:50;101003.19;;;-3.51;100.00
77299;BME280;66361;52.034;20.656;2023-03-01T06:11:54;101016.41;;;-3.06;100.00
77299;BME280;66361;52.034;20.656;2023-03-01T06:15:57;101007.13;;;-2.69;99.31
77299;BME280;66361;52.034;20.656;2023-03-01T06:20:01;101012.44;;;-2.25;98.83
77299;BME280;66361;52.034;20.656;2023-03-01T06:24:05;101020.28;;;-1.67;96.55
77299;BME280;66361;52.034;20.656;2023-03-01T06:28:09;101023.63;;;-0.83;93.39
77299;BME280;66361;52.034;20.656;2023-03-01T06:32:12;101005.16;;;-0.12;85.58
77299;BME280;66361;52.034;20.656;2023-03-01T06:36:20;101015.78;;;0.73;76.93
77299;BME280;66361;52.034;20.656;2023-03-01T06:40:23;101023.47;;;1.62;76.62
77299;BME280;66361;52.034;20.656;2023-03-01T06:44:27;101024.03;;;2.46;74.57
77299;BME280;66361;52.034;20.656;2023-03-01T06:48:31;101007.69;;;2.85;68.51
77299;BME280;66361;52.034;20.656;2023-03-01T06:52:35;101001.56;;;3.77;64.60
77299;BME280;66361;52.034;20.656;2023-03-01T06:56:39;101010.09;;;4.59;62.78
77299;BME280;66361;52.034;20.656;2023-03-01T07:00:42;101005.13;;;5.16;61.49
77299;BME280;66361;52.034;20.656;2023-03-01T07:04:46;101013.34;;;5.93;60.34
77299;BME280;66361;52.034;20.656;2023-03-01T07:08:52;101016.44;;;6.61;55.48
77299;BME280;66361;52.034;20.656;2023-03-01T07:12:56;101008.31;;;7.20;52.03
77299;BME280;66361;52.034;20.656;2023-03-01T07:17:02;100999.84;;;7.37;49.63
77299;BME280;66361;52.034;20.656;2023-03-01T07:21:05;101011.78;;;8.13;49.43
77299;BME280;66361;52.034;20.656;2023-03-01T07:25:10;101005.19;;;8.47;45.73
77299;BME280;66361;52.034;20.656;2023-03-01T07:29:13;101012.09;;;8.71;45.34
77299;BME280;66361;52.034;20.656;2023-03-01T07:33:17;101011.69;;;8.38;45.56
77299;BME280;66361;52.034;20.656;2023-03-01T07:37:20;100994.50;;;8.29;43.42
77299;BME280;66361;52.034;20.656;2023-03-01T07:41:24;100995.59;;;9.28;45.34
77299;BME280;66361;52.034;20.656;2023-03-01T07:45:28;101010.66;;;10.57;43.46
77299;BME280;66361;52.034;20.656;2023-03-01T07:49:32;101003.56;;;11.76;40.01
77299;BME280;66361;52.034;20.656;2023-03-01T07:53:34;101003.25;;;12.29;36.51
77299;BME280;66361;52.034;20.656;2023-03-01T07:57:39;100992.00;;;12.26;36.33
77299;BME280;66361;52.034;20.656;2023-03-01T08:01:42;100981.09;;;12.32;34.49
77299;BME280;66361;52.034;20.656;2023-03-01T08:05:49;100977.22;;;12.06;36.51
77299;BME280;66361;52.034;20.656;2023-03-01T08:09:52;100983.72;;;12.77;35.18
77299;BME280;66361;52.034;20.656;2023-03-01T08:13:56;100981.91;;;12.32;33.67
77299;BME280;66361;52.034;20.656;2023-03-01T08:18:00;100987.09;;;13.39;34.36
77299;BME280;66361;52.034;20.656;2023-03-01T08:22:04;100986.56;;;14.03;33.79
77299;BME280;66361;52.034;20.656;2023-03-01T08:26:09;100983.47;;;13.96;31.76
77299;BME280;66361;52.034;20.656;2023-03-01T08:30:15;100986.69;;;13.87;32.47
77299;BME280;66361;52.034;20.656;2023-03-01T08:34:18;100986.59;;;13.89;30.91
77299;BME280;66361;52.034;20.656;2023-03-01T08:38:22;100979.78;;;13.14;31.15
77299;BME280;66361;52.034;20.656;2023-03-01T08:42:25;100980.72;;;13.84;31.80
77299;BME280;66361;52.034;20.656;2023-03-01T08:46:34;100987.75;;;13.71;31.50
77299;BME280;66361;52.034;20.656;2023-03-01T08:50:38;100987.09;;;13.53;32.46
77299;BME280;66361;52.034;20.656;2023-03-01T08:54:42;100993.25;;;12.50;33.12
77299;BME280;66361;52.034;20.656;2023-03-01T08:58:46;100995.81;;;12.97;33.26
77299;BME280;66361;52.034;20.656;2023-03-01T09:02:52;100988.44;;;13.74;32.36
77299;BME280;66361;52.034;20.656;2023-03-01T09:06:56;100985.19;;;12.67;33.29
77299;BME280;66361;52.034;20.656;2023-03-01T09:11:01;100978.03;;;11.09;35.05
77299;BME280;66361;52.034;20.656;2023-03-01T09:15:07;100999.75;;;10.82;37.16
77299;BME280;66361;52.034;20.656;2023-03-01T09:19:12;100988.81;;;10.53;38.84
77299;BME280;66361;52.034;20.656;2023-03-01T09:23:18;100991.25;;;11.09;38.44
77299;BME280;66361;52.034;20.656;2023-03-01T09:27:22;101001.56;;;11.15;37.23
77299;BME280;66361;52.034;20.656;2023-03-01T09:31:26;101002.09;;;11.55;35.32
77299;BME280;66361;52.034;20.656;2023-03-01T09:35:30;101004.22;;;11.31;36.63
77299;BME280;66361;52.034;20.656;2023-03-01T09:39:34;101000.59;;;10.99;37.52
77299;BME280;66361;52.034;20.656;2023-03-01T09:43:43;100992.88;;;10.60;38.52
77299;BME280;66361;52.034;20.656;2023-03-01T09:47:48;100989.66;;;10.37;39.88
77299;BME280;66361;52.034;20.656;2023-03-01T09:51:59;100981.94;;;9.96;40.63
77299;BME280;66361;52.034;20.656;2023-03-01T09:56:05;100989.50;;;10.40;39.94
77299;BME280;66361;52.034;20.656;2023-03-01T10:00:20;100963.34;;;10.35;40.19
77299;BME280;66361;52.034;20.656;2023-03-01T10:04:32;100967.38;;;10.25;41.52
77299;BME280;66361;52.034;20.656;2023-03-01T10:08:48;100961.53;;;9.81;41.69
77299;BME280;66361;52.034;20.656;2023-03-01T10:12:56;100958.66;;;9.68;43.13
77299;BME280;66361;52.034;20.656;2023-03-01T10:17:03;100956.22;;;9.64;42.37
77299;BME280;66361;52.034;20.656;2023-03-01T10:21:15;100956.78;;;9.70;43.31
77299;BME280;66361;52.034;20.656;2023-03-01T10:25:38;100947.28;;;9.85;42.71
77299;BME280;66361;52.034;20.656;2023-03-01T10:29:50;100950.09;;;10.71;42.15
77299;BME280;66361;52.034;20.656;2023-03-01T10:33:57;100944.69;;;10.74;41.18
77299;BME280;66361;52.034;20.656;2023-03-01T10:38:07;100928.44;;;11.32;39.89
77299;BME280;66361;52.034;20.656;2023-03-01T10:42:21;100922.28;;;11.64;40.21
77299;BME280;66361;52.034;20.656;2023-03-01T10:46:28;100917.88;;;11.32;41.52
77299;BME280;66361;52.034;20.656;2023-03-01T10:50:31;100920.50;;;10.64;41.00
77299;BME280;66361;52.034;20.656;2023-03-01T10:54:34;100918.81;;;10.29;42.36
77299;BME280;66361;52.034;20.656;2023-03-01T10:58:40;100909.84;;;9.79;43.55
77299;BME280;66361;52.034;20.656;2023-03-01T11:02:47;100909.94;;;8.99;46.15
77299;BME280;66361;52.034;20.656;2023-03-01T11:06:58;100903.78;;;8.40;48.07
77299;BME280;66361;52.034;20.656;2023-03-01T11:11:19;100904.72;;;8.17;49.77
77299;BME280;66361;52.034;20.656;2023-03-01T11:15:28;100895.06;;;8.17;51.05
77299;BME280;66361;52.034;20.656;2023-03-01T11:19:32;100901.06;;;8.21;50.61
77299;BME280;66361;52.034;20.656;2023-03-01T11:23:46;100891.16;;;8.06;50.91
77299;BME280;66361;52.034;20.656;2023-03-01T11:27:52;100899.25;;;7.79;51.49
77299;BME280;66361;52.034;20.656;2023-03-01T11:32:02;100894.72;;;7.61;52.18
77299;BME280;66361;52.034;20.656;2023-03-01T11:36:15;100883.13;;;7.67;52.05
77299;BME280;66361;52.034;20.656;2023-03-01T11:40:24;100874.91;;;7.53;52.12
77299;BME280;66361;52.034;20.656;2023-03-01T11:44:31;100880.34;;;7.48;52.99
77299;BME280;66361;52.034;20.656;2023-03-01T11:48:47;100875.63;;;7.56;53.33
77299;BME280;66361;52.034;20.656;2023-03-01T11:53:02;100875.09;;;7.48;53.79
77299;BME280;66361;52.034;20.656;2023-03-01T11:57:12;100870.47;;;7.55;54.40
77299;BME280;66361;52.034;20.656;2023-03-01T12:01:32;100863.75;;;7.48;54.16
77299;BME280;66361;52.034;20.656;2023-03-01T12:05:54;100868.47;;;7.38;53.17
77299;BME280;66361;52.034;20.656;2023-03-01T12:10:20;100869.03;;;7.23;55.34
77299;BME280;66361;52.034;20.656;2023-03-01T12:14:45;100877.88;;;7.22;56.28
77299;BME280;66361;52.034;20.656;2023-03-01T12:19:09;100877.97;;;6.96;56.60
77299;BME280;66361;52.034;20.656;2023-03-01T12:28:04;100867.75;;;6.88;57.57
77299;BME280;66361;52.034;20.656;2023-03-01T12:32:19;100863.91;;;6.97;58.13
77299;BME280;66361;52.034;20.656;2023-03-01T12:36:45;100862.09;;;6.99;58.71
77299;BME280;66361;52.034;20.656;2023-03-01T12:45:59;100852.00;;;6.88;59.09
77299;BME280;66361;52.034;20.656;2023-03-01T12:50:14;100858.41;;;6.79;59.62
77299;BME280;66361;52.034;20.656;2023-03-01T12:54:26;100856.78;;;6.75;60.23
77299;BME280;66361;52.034;20.656;2023-03-01T12:58:33;100852.72;;;6.67;60.03
77299;BME280;66361;52.034;20.656;2023-03-01T13:02:56;100850.72;;;6.50;61.24
77299;BME280;66361;52.034;20.656;2023-03-01T13:07:23;100844.06;;;6.40;61.59
77299;BME280;66361;52.034;20.656;2023-03-01T13:11:28;100838.94;;;6.37;62.25
77299;BME280;66361;52.034;20.656;2023-03-01T13:15:32;100841.50;;;6.39;62.35
77299;BME280;66361;52.034;20.656;2023-03-01T13:19:56;100839.84;;;6.36;61.84
77299;BME280;66361;52.034;20.656;2023-03-01T13:23:59;100841.16;;;6.23;62.29
77299;BME280;66361;52.034;20.656;2023-03-01T13:28:35;100841.38;;;6.17;62.95
77299;BME280;66361;52.034;20.656;2023-03-01T13:32:42;100827.72;;;6.07;63.52
77299;BME280;66361;52.034;20.656;2023-03-01T13:36:49;100833.78;;;6.09;63.47
77299;BME280;66361;52.034;20.656;2023-03-01T13:40:59;100823.34;;;6.08;63.37
77299;BME280;66361;52.034;20.656;2023-03-01T13:45:17;100822.69;;;6.01;64.48
77299;BME280;66361;52.034;20.656;2023-03-01T13:49:25;100823.75;;;5.96;64.38
77299;BME280;66361;52.034;20.656;2023-03-01T13:53:45;100822.13;;;5.92;64.26
77299;BME280;66361;52.034;20.656;2023-03-01T13:57:51;100811.75;;;5.88;64.28
77299;BME280;66361;52.034;20.656;2023-03-01T14:01:58;100812.88;;;5.81;65.22
77299;BME280;66361;52.034;20.656;2023-03-01T14:06:07;100815.84;;;5.71;64.74
77299;BME280;66361;52.034;20.656;2023-03-01T14:10:18;100816.09;;;5.63;65.59
77299;BME280;66361;52.034;20.656;2023-03-01T14:14:34;100812.84;;;5.55;65.58
77299;BME280;66361;52.034;20.656;2023-03-01T14:18:48;100808.94;;;5.42;66.27
77299;BME280;66361;52.034;20.656;2023-03-01T14:22:55;100810.97;;;5.32;66.40
77299;BME280;66361;52.034;20.656;2023-03-01T14:27:02;100797.44;;;5.18;67.56
77299;BME280;66361;52.034;20.656;2023-03-01T14:31:38;100792.31;;;5.15;67.60
77299;BME280;66361;52.034;20.656;2023-03-01T14:35:58;100791.78;;;5.04;67.57
77299;BME280;66361;52.034;20.656;2023-03-01T14:40:04;100781.44;;;5.00;68.70
77299;BME280;66361;52.034;20.656;2023-03-01T14:44:14;100783.19;;;4.99;68.13
77299;BME280;66361;52.034;20.656;2023-03-01T14:48:23;100785.19;;;4.91;68.36
77299;BME280;66361;52.034;20.656;2023-03-01T14:52:33;100778.31;;;4.87;69.06
77299;BME280;66361;52.034;20.656;2023-03-01T14:56:47;100777.56;;;4.83;69.46
77299;BME280;66361;52.034;20.656;2023-03-01T15:00:53;100764.81;;;4.73;70.48
77299;BME280;66361;52.034;20.656;2023-03-01T15:05:01;100765.16;;;4.61;69.90
77299;BME280;66361;52.034;20.656;2023-03-01T15:09:14;100762.06;;;4.48;70.06
77299;BME280;66361;52.034;20.656;2023-03-01T15:13:22;100766.63;;;4.40;71.07
77299;BME280;66361;52.034;20.656;2023-03-01T15:17:31;100765.41;;;4.21;72.14
77299;BME280;66361;52.034;20.656;2023-03-01T15:21:37;100766.78;;;4.03;73.10
77299;BME280;66361;52.034;20.656;2023-03-01T15:25:44;100765.16;;;3.98;73.29
77299;BME280;66361;52.034;20.656;2023-03-01T15:29:53;100765.66;;;3.79;73.64
77299;BME280;66361;52.034;20.656;2023-03-01T15:34:21;100751.50;;;3.54;74.47
77299;BME280;66361;52.034;20.656;2023-03-01T15:38:27;100754.56;;;3.36;75.58
77299;BME280;66361;52.034;20.656;2023-03-01T15:42:37;100753.31;;;3.14;76.12
77299;BME280;66361;52.034;20.656;2023-03-01T15:46:46;100756.22;;;3.02;77.78
77299;BME280;66361;52.034;20.656;2023-03-01T15:50:56;100750.47;;;2.87;78.36
77299;BME280;66361;52.034;20.656;2023-03-01T15:55:01;100750.84;;;2.69;78.97
77299;BME280;66361;52.034;20.656;2023-03-01T15:59:05;100748.59;;;2.53;79.98
77299;BME280;66361;52.034;20.656;2023-03-01T16:03:11;100750.81;;;2.29;80.65
77299;BME280;66361;52.034;20.656;2023-03-01T16:07:16;100751.22;;;2.08;81.67
77299;BME280;66361;52.034;20.656;2023-03-01T16:11:22;100734.31;;;1.84;82.36
77299;BME280;66361;52.034;20.656;2023-03-01T16:15:32;100730.38;;;1.61;83.36
77299;BME280;66361;52.034;20.656;2023-03-01T16:19:35;100748.97;;;1.38;84.47
77299;BME280;66361;52.034;20.656;2023-03-01T16:23:41;100737.19;;;1.16;85.78
77299;BME280;66361;52.034;20.656;2023-03-01T16:27:45;100733.19;;;0.93;86.42
77299;BME280;66361;52.034;20.656;2023-03-01T16:31:48;100738.59;;;0.80;87.68
77299;BME280;66361;52.034;20.656;2023-03-01T16:35:52;100747.41;;;0.70;88.40
77299;BME280;66361;52.034;20.656;2023-03-01T16:39:57;100746.75;;;0.54;89.22
77299;BME280;66361;52.034;20.656;2023-03-01T16:44:00;100734.72;;;0.44;90.54
77299;BME280;66361;52.034;20.656;2023-03-01T16:48:06;100734.94;;;0.27;90.19
77299;BME280;66361;52.034;20.656;2023-03-01T16:52:12;100744.63;;;0.10;90.63
77299;BME280;66361;52.034;20.656;2023-03-01T16:56:17;100731.78;;;0.01;92.63
77299;BME280;66361;52.034;20.656;2023-03-01T17:00:22;100727.59;;;-0.12;94.26
77299;BME280;66361;52.034;20.656;2023-03-01T17:04:26;100733.00;;;-0.32;94.03
77299;BME280;66361;52.034;20.656;2023-03-01T17:08:29;100746.94;;;-0.45;95.03
77299;BME280;66361;52.034;20.656;2023-03-01T17:12:34;100751.34;;;-0.55;95.27
77299;BME280;66361;52.034;20.656;2023-03-01T17:16:41;100743.63;;;-0.64;96.02
77299;BME280;66361;52.034;20.656;2023-03-01T17:20:44;100754.94;;;-0.74;96.33
77299;BME280;66361;52.034;20.656;2023-03-01T17:24:53;100754.13;;;-0.79;98.22
77299;BME280;66361;52.034;20.656;2023-03-01T17:28:58;100755.03;;;-0.84;99.29
77299;BME280;66361;52.034;20.656;2023-03-01T17:33:01;100755.94;;;-0.95;99.37
77299;BME280;66361;52.034;20.656;2023-03-01T17:37:04;100759.47;;;-1.05;100.00
77299;BME280;66361;52.034;20.656;2023-03-01T17:41:07;100761.25;;;-1.11;100.00
77299;BME280;66361;52.034;20.656;2023-03-01T17:45:14;100756.94;;;-1.17;100.00
77299;BME280;66361;52.034;20.656;2023-03-01T17:49:16;100753.53;;;-1.25;100.00
77299;BME280;66361;52.034;20.656;2023-03-01T17:53:23;100744.06;;;-1.27;100.00
77299;BME280;66361;52.034;20.656;2023-03-01T17:57:26;100754.47;;;-1.38;100.00
77299;BME280;66361;52.034;20.656;2023-03-01T18:01:30;100744.16;;;-1.46;100.00
77299;BME280;66361;52.034;20.656;2023-03-01T18:05:36;100742.44;;;-1.51;100.00
77299;BME280;66361;52.034;20.656;2023-03-01T18:09:39;100741.66;;;-1.64;100.00
77299;BME280;66361;52.034;20.656;2023-03-01T18:13:43;100742.56;;;-1.72;100.00
77299;BME280;66361;52.034;20.656;2023-03-01T18:17:48;100744.28;;;-1.73;100.00
77299;BME280;66361;52.034;20.656;2023-03-01T18:21:51;100745.16;;;-1.74;100.00
77299;BME280;66361;52.034;20.656;2023-03-01T18:25:57;100746.03;;;-1.79;100.00
77299;BME280;66361;52.034;20.656;2023-03-01T18:30:01;100747.81;;;-1.89;100.00
77299;BME280;66361;52.034;20.656;2023-03-01T18:34:09;100744.38;;;-1.92;100.00
77299;BME280;66361;52.034;20.656;2023-03-01T18:38:14;100740.03;;;-2.00;100.00
77299;BME280;66361;52.034;20.656;2023-03-01T18:42:22;100740.06;;;-2.10;100.00
77299;BME280;66361;52.034;20.656;2023-03-01T18:46:26;100739.22;;;-2.14;100.00
77299;BME280;66361;52.034;20.656;2023-03-01T18:50:30;100743.53;;;-2.17;100.00
77299;BME280;66361;52.034;20.656;2023-03-01T18:54:34;100739.25;;;-2.26;100.00
77299;BME280;66361;52.034;20.656;2023-03-01T18:58:38;100742.72;;;-2.31;100.00
77299;BME280;66361;52.034;20.656;2023-03-01T19:02:43;100735.81;;;-2.35;100.00
77299;BME280;66361;52.034;20.656;2023-03-01T19:06:47;100722.03;;;-2.41;100.00
77299;BME280;66361;52.034;20.656;2023-03-01T19:10:54;100731.53;;;-2.38;100.00
77299;BME280;66361;52.034;20.656;2023-03-01T19:15:02;100742.72;;;-2.41;100.00
77299;BME280;66361;52.034;20.656;2023-03-01T19:19:05;100737.56;;;-2.50;100.00
77299;BME280;66361;52.034;20.656;2023-03-01T19:23:11;100736.69;;;-2.52;100.00
77299;BME280;66361;52.034;20.656;2023-03-01T19:27:14;100740.13;;;-2.56;100.00
77299;BME280;66361;52.034;20.656;2023-03-01T19:31:25;100750.50;;;-2.57;100.00
77299;BME280;66361;52.034;20.656;2023-03-01T19:35:29;100759.97;;;-2.58;100.00
77299;BME280;66361;52.034;20.656;2023-03-01T19:39:33;100755.66;;;-2.54;100.00
77299;BME280;66361;52.034;20.656;2023-03-01T19:43:36;100760.84;;;-2.57;100.00
77299;BME280;66361;52.034;20.656;2023-03-01T19:47:40;100755.66;;;-2.60;100.00
77299;BME280;66361;52.034;20.656;2023-03-01T19:51:43;100764.25;;;-2.60;100.00
77299;BME280;66361;52.034;20.656;2023-03-01T19:55:48;100763.41;;;-2.65;100.00
77299;BME280;66361;52.034;20.656;2023-03-01T19:59:54;100758.22;;;-2.63;100.00
77299;BME280;66361;52.034;20.656;2023-03-01T20:03:57;100763.41;;;-2.66;100.00
77299;BME280;66361;52.034;20.656;2023-03-01T20:08:05;100766.00;;;-2.69;100.00
77299;BME280;66361;52.034;20.656;2023-03-01T20:12:11;100766.84;;;-2.72;100.00
77299;BME280;66361;52.034;20.656;2023-03-01T20:16:15;100755.66;;;-2.74;100.00
77299;BME280;66361;52.034;20.656;2023-03-01T20:20:19;100756.50;;;-2.78;100.00
77299;BME280;66361;52.034;20.656;2023-03-01T20:24:22;100769.44;;;-2.79;100.00
77299;BME280;66361;52.034;20.656;2023-03-01T20:28:26;100783.19;;;-2.74;100.00
77299;BME280;66361;52.034;20.656;2023-03-01T20:32:29;100765.13;;;-2.70;100.00
77299;BME280;66361;52.034;20.656;2023-03-01T20:36:32;100775.47;;;-2.62;100.00
77299;BME280;66361;52.034;20.656;2023-03-01T20:40:39;100780.63;;;-2.55;100.00
77299;BME280;66361;52.034;20.656;2023-03-01T20:44:43;100782.34;;;-2.48;100.00
77299;BME280;66361;52.034;20.656;2023-03-01T20:48:46;100769.44;;;-2.48;100.00
77299;BME280;66361;52.034;20.656;2023-03-01T20:52:54;100771.16;;;-2.51;100.00
77299;BME280;66361;52.034;20.656;2023-03-01T20:56:57;100772.88;;;-2.59;100.00
77299;BME280;66361;52.034;20.656;2023-03-01T21:01:04;100778.03;;;-2.67;100.00
77299;BME280;66361;52.034;20.656;2023-03-01T21:05:08;100772.00;;;-2.67;100.00
77299;BME280;66361;52.034;20.656;2023-03-01T21:09:11;100766.84;;;-2.69;100.00
77299;BME280;66361;52.034;20.656;2023-03-01T21:13:14;100765.13;;;-2.71;100.00
77299;BME280;66361;52.034;20.656;2023-03-01T21:17:19;100763.38;;;-2.71;100.00
77299;BME280;66361;52.034;20.656;2023-03-01T21:21:22;100767.72;;;-2.73;100.00
77299;BME280;66361;52.034;20.656;2023-03-01T21:25:25;100765.97;;;-2.71;100.00